Latest Coastal Weather Observations for Portland Harbour

IDV60701

Issued at 6:21 pm EST Monday 21 August 2017 (issued every 10 minutes, with the page automatically refreshed every 10 minutes)

About coastal observations | Map of coastal stations | Coastal observations for VIC | Marine services | Other Formats
Station Details ID: 090192 Name: PORTLAND NTC AWS Lat: -38.34 Lon: 141.61 Height: 0.0 m
Data from the previous 72 hours. | See also: Recent months for locations in Victoria
Date/Time
EST
Temp
°C
Wind Pressure Rain since
9am
mm
Weather Cloud Vis
km
Sea
Height
m
Swell
Dir  Spd
kts
Gust
kts
hPa Trend Height
m
Period
s
Dir
21/06:00pm 11.7 SW 4 5 1013.4 - - - - - - - - -
21/05:30pm 12.2 SSW 6 8 1013.1 - - - - - - - - -
21/05:00pm 12.2 SW 6 8 1012.7 - - - - - - - - -
21/04:30pm 12.2 S 5 7 1012.3 - - - - - - - - -
21/04:00pm 12.1 NE 3 5 1012.2 - - - - - - - - -
21/03:30pm 12.2 NNE 3 5 1011.9 - - - - - - - - -
21/03:00pm 12.1 NE 6 8 1011.4 - - - - - - - - -
21/02:30pm 11.6 NE 6 8 1011.5 - - - - - - - - -
21/02:00pm 11.0 NE 7 10 1011.5 - - - - - - - - -
21/01:30pm 10.7 NE 7 10 1011.8 - - - - - - - - -
21/01:00pm 10.6 N 8 10 1012.1 - - - - - - - - -
21/12:30pm 10.1 NNE 6 9 1012.5 - - - - - - - - -
21/12:00pm 9.9 N 10 14 1012.7 - - - - - - - - -
21/11:30am 9.4 NNE 12 16 1012.8 - - - - - - - - -
21/11:00am 8.8 NNE 11 14 1012.9 - - - - - - - - -
21/10:30am 8.3 NNE 10 13 1013.2 - - - - - - - - -
21/10:00am 7.9 NNE 9 13 1013.5 - - - - - - - - -
21/09:30am 7.4 NNE 11 15 1013.6 - - - - - - - - -
21/09:00am 7.5 NE 13 16 1013.4 - - - - - - - - -
21/08:30am 7.4 NE 14 19 1013.4 - - - - - - - - -
21/08:00am 7.2 NE 14 18 1013.3 - - - - - - - - -
21/07:30am 7.4 NE 13 16 1013.3 - - - - - - - - -
21/07:00am 7.2 NNE 11 15 1013.1 - - - - - - - - -
21/06:30am 7.4 NNE 13 15 1012.9 - - - - - - - - -
21/06:00am 7.7 NNE 14 16 1012.8 - - - - - - - - -
21/05:30am 7.6 NNE 15 19 1012.9 - - - - - - - - -
21/05:00am 7.6 NNE 15 19 1012.9 - - - - - - - - -
21/04:30am 7.7 NNE 14 18 1013.2 - - - - - - - - -
21/04:00am 7.9 NNE 14 19 1013.5 - - - - - - - - -
21/03:30am 7.7 N 16 19 1014.0 - - - - - - - - -
21/03:00am 8.7 N 16 19 1014.2 - - - - - - - - -
21/02:30am 9.9 N 18 23 1014.3 - - - - - - - - -
21/02:00am 8.6 N 12 16 1014.7 - - - - - - - - -
21/01:30am 9.1 N 11 13 1015.1 - - - - - - - - -
21/01:00am 9.2 NNE 12 14 1015.6 - - - - - - - - -
21/12:30am 9.7 NNE 11 14 1015.7 - - - - - - - - -
21/12:00am 9.8 NNE 10 13 1016.2 - - - - - - - - -
 
Date/Time
EST
Temp
°C
Wind Pressure Rain since
9am
mm
Weather Cloud Vis
km
Sea
Height
m
Swell
Dir  Spd
kts
Gust
kts
hPa Trend Height
m
Period
s
Dir
20/11:30pm 9.9 NNE 9 11 1016.5 - - - - - - - - -
20/11:00pm 9.8 NNE 9 12 1016.8 - - - - - - - - -
20/10:30pm 9.9 NNE 12 13 1017.3 - - - - - - - - -
20/10:00pm 10.1 NNE 13 15 1017.5 - - - - - - - - -
20/09:30pm 10.2 NNE 13 15 1017.4 - - - - - - - - -
20/09:00pm 9.9 NNE 8 10 1017.6 - - - - - - - - -
20/08:30pm 10.0 NNE 9 12 1017.5 - - - - - - - - -
20/08:00pm 9.9 N 9 12 1017.7 - - - - - - - - -
20/07:30pm 9.8 N 7 9 1018.1 - - - - - - - - -
20/07:00pm 9.8 NNW 6 7 1018.5 - - - - - - - - -
20/06:30pm 9.8 NNW 7 13 1018.4 - - - - - - - - -
20/06:00pm 10.7 NNE 8 11 1018.6 - - - - - - - - -
20/05:30pm 10.6 NE 7 10 1018.4 - - - - - - - - -
20/05:00pm 10.5 NNE 7 8 1019.1 - - - - - - - - -
20/04:30pm 10.7 NNE 6 8 1019.4 - - - - - - - - -
20/04:00pm 10.8 N 7 10 1019.5 - - - - - - - - -
20/03:30pm 10.8 N 10 15 1020.0 - - - - - - - - -
20/03:00pm 11.0 N 11 14 1020.2 - - - - - - - - -
20/02:30pm 10.9 N 9 11 1020.2 - - - - - - - - -
20/02:00pm 10.7 NNE 10 12 1020.4 - - - - - - - - -
20/01:30pm 10.5 NNE 10 13 1020.9 - - - - - - - - -
20/01:00pm 10.4 NNE 9 11 1021.9 - - - - - - - - -
20/12:30pm 10.2 N 8 11 1022.6 - - - - - - - - -
20/12:00pm 9.9 N 7 10 1023.7 - - - - - - - - -
20/11:30am 9.5 N 12 14 1024.7 - - - - - - - - -
20/11:00am 9.2 NNW 11 13 1024.9 - - - - - - - - -
20/10:30am 9.1 NNW 10 13 1025.1 - - - - - - - - -
20/10:00am 9.1 NNW 13 15 1025.7 - - - - - - - - -
20/09:30am 8.6 NNW 11 14 1026.0 - - - - - - - - -
20/09:00am 8.1 NW 6 12 1026.2 - - - - - - - - -
20/08:30am 6.5 WNW 3 7 1026.3 - - - - - - - - -
20/08:00am 3.9 W 3 4 1026.5 - - - - - - - - -
20/07:30am 3.6 SW 4 5 1026.6 - - - - - - - - -
20/07:00am 3.2 SW 2 3 1026.6 - - - - - - - - -
20/06:30am 3.6 W 3 5 1026.4 - - - - - - - - -
20/06:00am 3.5 WSW 3 5 1026.4 - - - - - - - - -
20/05:30am 3.8 W 3 5 1026.3 - - - - - - - - -
20/05:00am 3.7 WSW 3 5 1026.4 - - - - - - - - -
20/04:30am 4.1 W 3 5 1026.3 - - - - - - - - -
20/04:00am 4.1 WNW 3 6 1026.6 - - - - - - - - -
20/03:30am 4.4 WNW 5 7 1026.6 - - - - - - - - -
20/03:00am 3.8 W 4 6 1026.8 - - - - - - - - -
20/02:30am 4.3 W 3 5 1026.8 - - - - - - - - -
20/02:00am 5.0 SW 1 3 1027.1 - - - - - - - - -
20/01:30am 5.3 WNW 5 7 1027.0 - - - - - - - - -
20/01:00am 5.8 WNW 4 8 1027.1 - - - - - - - - -
20/12:30am 5.9 W 4 5 1027.3 - - - - - - - - -
20/12:00am 7.0 WSW 2 4 1027.3 - - - - - - - - -
 
Date/Time
EST
Temp
°C
Wind Pressure Rain since
9am
mm
Weather Cloud Vis
km
Sea
Height
m
Swell
Dir  Spd
kts
Gust
kts
hPa Trend Height
m
Period
s
Dir
19/11:30pm 8.2 NNW 1 3 1027.5 - - - - - - - - -
19/11:00pm 7.2 SSW 2 4 1027.9 - - - - - - - - -
19/10:30pm 7.5 WNW 4 6 1028.1 - - - - - - - - -
19/10:00pm 7.2 WSW 2 3 1028.1 - - - - - - - - -
19/09:30pm 7.6 SW 3 5 1028.3 - - - - - - - - -
19/09:00pm 7.0 SW 3 4 1028.5 - - - - - - - - -
19/08:30pm 7.1 SW 4 6 1028.5 - - - - - - - - -
19/08:00pm 7.7 W 7 8 1028.2 - - - - - - - - -
19/07:30pm 8.8 WSW 3 5 1028.0 - - - - - - - - -
19/07:00pm 9.2 SW 3 4 1027.8 - - - - - - - - -
19/06:30pm 9.6 WSW 5 6 1027.8 - - - - - - - - -
19/06:00pm 10.7 SSW 3 5 1027.6 - - - - - - - - -
19/05:30pm 11.0 S 4 5 1027.6 - - - - - - - - -
19/05:00pm 11.5 S 6 8 1027.6 - - - - - - - - -
19/04:30pm 11.3 S 8 11 1027.7 - - - - - - - - -
19/04:00pm 11.2 S 7 11 1027.7 - - - - - - - - -
19/03:30pm 11.1 S 8 12 1028.0 - - - - - - - - -
19/03:00pm 11.3 SSW 10 13 1028.0 - - - - - - - - -
19/02:30pm 11.2 SSW 11 17 1028.0 - - - - - - - - -
19/02:00pm 11.4 SSW 11 14 1027.9 - - - - - - - - -
19/01:30pm 11.4 SSW 13 18 1028.2 - - - - - - - - -
19/01:00pm 11.2 S 9 13 1028.2 - - - - - - - - -
19/12:30pm 11.2 SSW 11 16 1028.2 - - - - - - - - -
19/12:00pm 11.2 S 10 13 1028.4 - - - - - - - - -
19/11:30am 11.5 S 10 14 1028.6 - - - - - - - - -
19/11:00am 10.8 SSW 13 18 1028.6 - - - - - - - - -
19/10:30am 10.9 S 12 17 1028.4 - - - - - - - - -
19/10:00am 10.8 SSW 13 16 1028.3 - - - - - - - - -
19/09:30am 10.0 SW 9 13 1028.1 - - - - - - - - -
19/09:00am 10.8 SSW 10 13 1027.8 - - - - - - - - -
19/08:30am 9.9 SSW 9 13 1027.3 - - - - - - - - -
19/08:00am 9.9 SSW 9 13 1026.9 - - - - - - - - -
19/07:30am 9.6 SSW 9 14 1026.5 - - - - - - - - -
19/07:00am 8.7 SW 6 9 1026.0 - - - - - - - - -
19/06:30am 9.3 S 10 14 1025.6 - - - - - - - - -
19/06:00am 9.0 SSE 12 18 1025.3 - - - - - - - - -
19/05:30am 9.4 S 11 15 1024.9 - - - - - - - - -
19/05:00am 9.7 SSW 14 20 1024.6 - - - - - - - - -
19/04:30am 8.8 SSW 13 20 1024.3 - - - - - - - - -
19/04:00am 9.6 SSW 14 19 1024.1 - - - - - - - - -
19/03:30am 9.6 SSW 12 18 1023.9 - - - - - - - - -
19/03:00am 9.4 SSW 7 14 1023.7 - - - - - - - - -
19/02:30am 9.6 SSW 9 13 1023.5 - - - - - - - - -
19/02:00am 9.2 S 17 25 1023.7 - - - - - - - - -
19/01:57am 9.6 SSW 15 25 1023.6 - - - - - - - - -
19/01:30am 10.1 SSW 12 16 1023.3 - - - - - - - - -
19/01:00am 10.2 SSW 14 18 1023.2 - - - - - - - - -
19/12:30am 10.1 SSW 12 19 1023.0 - - - - - - - - -
19/12:00am 10.3 SSW 13 19 1022.8 - - - - - - - - -
 
Date/Time
EST
Temp
°C
Wind Pressure Rain since
9am
mm
Weather Cloud Vis
km
Sea
Height
m
Swell
Dir  Spd
kts
Gust
kts
hPa Trend Height
m
Period
s
Dir
18/11:30pm 10.1 SSW 11 17 1022.8 - - - - - - - - -
18/11:00pm 10.3 SSW 13 21 1022.7 - - - - - - - - -
18/10:30pm 10.0 SSW 14 24 1022.4 - - - - - - - - -
18/10:00pm 10.4 SSW 12 17 1022.2 - - - - - - - - -
18/09:30pm 9.6 SW 7 13 1022.0 - - - - - - - - -
18/09:01pm 10.3 SSW 17 29 1021.8 - - - - - - - - -
18/09:00pm 10.4 SSW 16 25 1021.7 - - - - - - - - -
18/08:30pm 10.4 SW 10 16 1021.4 - - - - - - - - -
18/08:00pm 10.4 SSW 12 16 1020.9 - - - - - - - - -
18/07:30pm 9.9 SW 10 15 1020.5 - - - - - - - - -
18/07:00pm 10.0 SW 13 20 1020.0 - - - - - - - - -
18/06:30pm 10.1 SW 11 17 1019.5 - - - - - - - - -

Other Formats:

Comma delimited format used in spreadsheet applications
http://www.bom.gov.au/fwo/IDV60701/IDV60701.95826.axf

JavaScript Object Notation format (JSON) in row-major order
http://www.bom.gov.au/fwo/IDV60701/IDV60701.95826.json